createdAt,value
2022-10-30T00:04:39.780Z,25.40
2022-10-30T00:09:41.718Z,29.80
2022-10-30T00:14:43.587Z,26.45
2022-10-30T00:19:45.563Z,24.13
2022-10-30T00:24:47.439Z,26.35
2022-10-30T00:29:49.271Z,29.98
2022-10-30T00:34:51.596Z,25.55
2022-10-30T00:39:53.536Z,24.15
2022-10-30T00:44:55.648Z,30.50
2022-10-30T00:50:04.003Z,27.80
2022-10-30T00:55:13.931Z,19.90
2022-10-30T01:00:17.138Z,23.38
2022-10-30T01:05:21.754Z,24.15
2022-10-30T01:10:24.308Z,20.83
2022-10-30T01:15:36.538Z,25.97
2022-10-30T01:21:00.900Z,22.35
2022-10-30T01:26:34.240Z,31.02
2022-10-30T01:31:47.251Z,25.77
2022-10-30T01:37:01.127Z,25.92
2022-10-30T01:42:40.748Z,26.50
2022-10-30T01:48:05.980Z,23.83
2022-10-30T01:53:47.344Z,22.95
2022-10-30T01:59:09.164Z,33.22
2022-10-30T02:04:13.270Z,28.45
2022-10-30T02:09:16.936Z,27.85
2022-10-30T02:14:34.575Z,28.15
2022-10-30T02:19:38.982Z,25.63
2022-10-30T02:24:40.983Z,29.85
2022-10-30T02:29:42.863Z,26.08
2022-10-30T02:34:44.863Z,24.13
2022-10-30T02:39:48.626Z,27.15
2022-10-30T02:44:50.535Z,24.20
2022-10-30T02:49:54.743Z,26.27
2022-10-30T02:54:56.600Z,26.55
2022-10-30T02:59:58.503Z,25.65
2022-10-30T03:05:00.451Z,24.95
2022-10-30T03:10:02.354Z,28.58
2022-10-30T03:15:05.390Z,23.43
2022-10-30T03:20:07.884Z,30.60
2022-10-30T03:25:10.166Z,28.30
2022-10-30T03:30:12.289Z,22.65
2022-10-30T03:35:14.511Z,25.52
2022-10-30T03:40:16.465Z,27.13
2022-10-30T03:45:18.355Z,28.30
2022-10-30T03:50:20.394Z,31.38
2022-10-30T03:55:23.592Z,26.92
2022-10-30T04:00:25.849Z,28.25
2022-10-30T04:05:33.618Z,24.45
2022-10-30T04:10:38.076Z,30.20
2022-10-30T04:15:44.046Z,25.10
2022-10-30T04:20:47.234Z,24.27
2022-10-30T04:25:50.217Z,26.20
2022-10-30T04:30:54.763Z,29.27
2022-10-30T04:40:59.086Z,26.55
2022-10-30T04:46:15.224Z,25.55
2022-10-30T04:51:17.284Z,24.38
2022-10-30T04:56:20.009Z,23.58
2022-10-30T05:01:23.236Z,24.40
2022-10-30T05:06:27.567Z,25.53
2022-10-30T05:16:31.425Z,24.90
2022-10-30T05:26:36.998Z,23.00
2022-10-30T05:31:39.018Z,30.10
2022-10-30T05:37:19.104Z,25.25
2022-10-30T05:42:21.328Z,23.60
2022-10-30T05:47:23.388Z,27.42
2022-10-30T05:52:29.291Z,24.98
2022-10-30T05:57:33.725Z,29.77
2022-10-30T06:02:36.245Z,25.75
2022-10-30T06:07:38.200Z,23.45
2022-10-30T06:12:40.177Z,25.40
2022-10-30T06:18:05.063Z,25.48
2022-10-30T06:23:15.275Z,25.65
2022-10-30T06:28:24.261Z,24.92
2022-10-30T06:33:27.198Z,27.67
2022-10-30T06:38:30.215Z,28.83
2022-10-30T06:43:32.635Z,29.08
2022-10-30T06:48:39.673Z,25.40
2022-10-30T06:53:41.534Z,30.85
2022-10-30T06:59:03.674Z,24.95
2022-10-30T07:04:10.879Z,22.63
2022-10-30T07:09:12.852Z,20.30
2022-10-30T07:14:15.391Z,25.58
2022-10-30T07:19:35.076Z,24.02
2022-10-30T07:24:38.159Z,21.30
2022-10-30T07:29:58.984Z,27.88
2022-10-30T07:35:09.563Z,20.55
2022-10-30T07:40:38.863Z,24.40
2022-10-30T07:45:45.919Z,25.48
2022-10-30T07:50:56.820Z,27.02
2022-10-30T07:55:59.062Z,22.02
2022-10-30T08:01:24.009Z,23.38
2022-10-30T08:06:27.416Z,19.27
2022-10-30T08:11:29.674Z,20.08
2022-10-30T08:16:33.408Z,16.67
2022-10-30T08:21:35.339Z,20.98
2022-10-30T08:26:44.351Z,18.45
2022-10-30T08:31:51.140Z,15.45
2022-10-30T08:37:00.093Z,14.50
2022-10-30T08:42:02.132Z,18.45
2022-10-30T08:47:10.134Z,13.98
2022-10-30T08:52:13.572Z,15.65
2022-10-30T08:57:15.500Z,16.42
2022-10-30T09:02:17.524Z,17.98
2022-10-30T09:08:01.713Z,10.50
2022-10-30T09:13:22.908Z,17.20
2022-10-30T09:18:24.862Z,15.30
2022-10-30T09:23:27.038Z,11.68
2022-10-30T09:28:45.838Z,12.93
2022-10-30T09:34:08.368Z,14.52
2022-10-30T09:39:20.104Z,12.98
2022-10-30T09:44:31.493Z,12.67
2022-10-30T09:49:41.164Z,12.85
2022-10-30T09:54:55.586Z,9.48
2022-10-30T10:00:22.750Z,10.02
2022-10-30T10:11:21.726Z,10.95
2022-10-30T10:16:28.430Z,11.73
2022-10-30T10:21:35.087Z,10.00
2022-10-30T10:27:00.367Z,7.70
2022-10-30T10:32:06.833Z,7.75
2022-10-30T10:37:32.620Z,11.95
2022-10-30T10:43:05.186Z,9.30
2022-10-30T10:48:34.643Z,7.10
2022-10-30T10:53:46.820Z,8.20
2022-10-30T10:58:53.791Z,5.78
2022-10-30T11:04:05.070Z,6.45
2022-10-30T11:09:22.170Z,6.65
2022-10-30T11:14:30.587Z,7.78
2022-10-30T11:19:32.899Z,6.10
2022-10-30T11:24:36.134Z,5.80
2022-10-30T11:29:37.980Z,8.63
2022-10-30T11:34:39.925Z,5.05
2022-10-30T11:39:42.067Z,7.45
2022-10-30T11:44:51.401Z,6.68
2022-10-30T11:49:56.757Z,6.63
2022-10-30T11:55:02.774Z,6.35
2022-10-30T12:00:13.967Z,5.07
2022-10-30T12:05:28.011Z,8.32
2022-10-30T12:10:30.830Z,7.70
2022-10-30T12:15:37.407Z,6.90
2022-10-30T12:20:39.408Z,5.88
2022-10-30T12:25:47.430Z,4.80
2022-10-30T12:30:58.912Z,4.53
2022-10-30T12:36:05.520Z,4.78
2022-10-30T12:41:07.607Z,3.67
2022-10-30T12:46:31.111Z,3.70
2022-10-30T12:52:00.294Z,6.68
2022-10-30T12:57:14.887Z,2.53
2022-10-30T13:02:27.428Z,3.95
2022-10-30T13:07:40.111Z,7.75
2022-10-30T13:12:46.351Z,7.00
2022-10-30T13:17:49.371Z,5.32
2022-10-30T13:23:10.724Z,5.53
2022-10-30T13:28:21.923Z,4.13
2022-10-30T13:33:42.056Z,5.82
2022-10-30T13:38:58.121Z,6.32
2022-10-30T13:44:05.777Z,10.55
2022-10-30T13:49:13.308Z,7.20
2022-10-30T13:54:26.582Z,8.95
2022-10-30T13:59:57.149Z,11.20
2022-10-30T14:05:22.853Z,11.18
2022-10-30T14:10:45.307Z,8.77
2022-10-30T14:15:47.346Z,4.20
2022-10-30T14:20:54.606Z,5.50
2022-10-30T14:26:03.028Z,5.97
2022-10-30T14:31:19.703Z,7.40
2022-10-30T14:36:21.551Z,5.15
2022-10-30T14:41:48.555Z,4.55
2022-10-30T14:47:02.896Z,14.98
2022-10-30T14:52:16.117Z,14.38
2022-10-30T14:57:51.368Z,18.98
2022-10-30T15:03:11.935Z,29.15
2022-10-30T15:08:22.706Z,23.63
2022-10-30T15:13:24.662Z,21.25
2022-10-30T15:18:30.538Z,55.45
2022-10-30T15:23:35.711Z,33.13
2022-10-30T15:28:38.747Z,47.35
2022-10-30T15:33:41.047Z,32.05
2022-10-30T15:38:42.916Z,31.20
2022-10-30T15:43:44.985Z,30.77
2022-10-30T15:48:48.023Z,35.42
2022-10-30T15:53:51.203Z,29.20
2022-10-30T15:58:58.514Z,398.85
2022-10-30T16:04:00.983Z,164.73
2022-10-30T16:09:04.462Z,111.97
2022-10-30T16:14:09.047Z,152.13
2022-10-30T16:19:26.344Z,91.38
2022-10-30T16:24:33.934Z,95.97
2022-10-30T16:29:36.240Z,78.00
2022-10-30T16:34:41.071Z,64.78
2022-10-30T16:39:43.846Z,56.90
2022-10-30T16:44:46.316Z,62.23
2022-10-30T16:49:52.129Z,51.95
2022-10-30T16:55:01.842Z,51.90
2022-10-30T17:00:05.597Z,56.70
2022-10-30T17:05:12.289Z,110.50
2022-10-30T17:10:44.469Z,86.32
2022-10-30T17:15:46.971Z,95.22
2022-10-30T17:21:11.702Z,82.22
2022-10-30T17:26:14.611Z,79.57
2022-10-30T17:31:22.344Z,87.43
2022-10-30T17:36:24.221Z,77.47
2022-10-30T17:41:26.193Z,78.25
2022-10-30T17:46:28.408Z,70.63
2022-10-30T17:51:32.478Z,71.38
2022-10-30T17:56:34.781Z,73.60
2022-10-30T18:01:36.849Z,70.30
2022-10-30T18:06:38.747Z,92.20
2022-10-30T18:11:40.660Z,100.57
2022-10-30T18:16:42.469Z,94.82
2022-10-30T18:21:48.341Z,112.25
2022-10-30T18:26:50.274Z,187.05
2022-10-30T18:31:52.171Z,185.25
2022-10-30T18:36:54.830Z,248.48
2022-10-30T18:41:56.826Z,187.48
2022-10-30T18:47:02.707Z,175.85
2022-10-30T18:52:05.436Z,226.82
2022-10-30T18:57:07.404Z,201.18
2022-10-30T19:02:23.245Z,189.77
2022-10-30T19:07:25.178Z,181.27
2022-10-30T19:12:27.326Z,177.60
2022-10-30T19:17:29.504Z,174.35
2022-10-30T19:22:31.541Z,227.20
2022-10-30T19:27:33.398Z,185.82
2022-10-30T19:32:35.225Z,194.88
2022-10-30T19:37:37.621Z,189.45
2022-10-30T19:42:39.422Z,163.40
2022-10-30T19:53:17.814Z,152.20
2022-10-30T19:58:22.282Z,148.68
2022-10-30T20:03:27.996Z,155.38
2022-10-30T20:08:29.982Z,146.52
2022-10-30T20:13:33.516Z,150.63
2022-10-30T20:18:36.380Z,151.63
2022-10-30T20:23:38.855Z,155.68
2022-10-30T20:28:42.356Z,132.38
2022-10-30T20:33:44.180Z,142.80
2022-10-30T20:38:46.084Z,153.77
2022-10-30T20:43:50.312Z,148.70
2022-10-30T20:48:52.135Z,142.05
2022-10-30T20:53:54.008Z,139.07
2022-10-30T20:58:56.059Z,131.35
2022-10-30T21:04:01.539Z,129.15
2022-10-30T21:09:04.497Z,132.65
2022-10-30T21:14:06.371Z,133.15
2022-10-30T21:19:08.419Z,126.80
2022-10-30T21:24:10.355Z,146.00
2022-10-30T21:29:12.349Z,126.85
2022-10-30T21:34:14.428Z,113.80
2022-10-30T21:39:16.330Z,109.00
2022-10-30T21:44:18.227Z,106.75
2022-10-30T21:49:20.177Z,141.95
2022-10-30T21:54:22.172Z,134.68
2022-10-30T21:59:24.248Z,114.47
2022-10-30T22:04:26.112Z,139.30
2022-10-30T22:09:28.055Z,143.80
2022-10-30T22:14:29.909Z,169.95
2022-10-30T22:19:31.781Z,153.13
2022-10-30T22:24:33.770Z,161.45
2022-10-30T22:29:35.625Z,159.75
2022-10-30T22:34:37.846Z,169.00
2022-10-30T22:39:39.701Z,148.48
2022-10-30T22:44:41.746Z,156.43
2022-10-30T22:49:43.599Z,176.93
2022-10-30T22:54:45.424Z,161.13
2022-10-30T22:59:47.680Z,134.80
2022-10-30T23:04:49.629Z,160.07
2022-10-30T23:09:52.075Z,168.38
2022-10-30T23:14:54.054Z,169.25
2022-10-30T23:19:55.877Z,168.55
2022-10-30T23:24:57.736Z,177.88
2022-10-30T23:29:59.750Z,156.57
2022-10-30T23:35:01.615Z,152.93
2022-10-30T23:40:03.740Z,143.18
2022-10-30T23:45:06.509Z,142.43
2022-10-30T23:50:08.763Z,146.97
2022-10-30T23:55:10.631Z,143.15
